Time;durP1;ratioP1;P1;durP2;ratioP2;P2;SDS_P1;SDS_P2;PMS_P1;PMS_P2;Temp;Humidity;BMP_temperature;BMP_pressure;BME280_temperature;BME280_humidity;BME280_pressure;Samples;Min_cycle;Max_cycle;Signal;HPM_P1;HPM_P2
2022/04/23 00:02:03;;;;;;;2.90;2.42;;;10.90;99.90;;;;;;5050588;28;20045;-69
2022/04/23 00:04:30;;;;;;;14.43;3.08;;;10.80;99.90;;;;;;5056301;28;20503;-70
2022/04/23 00:06:59;;;;;;;1.80;1.65;;;10.80;99.90;;;;;;5064983;28;20133;-70
2022/04/23 00:09:25;;;;;;;4.32;2.22;;;10.70;99.90;;;;;;5058881;28;20069;-70
2022/04/23 00:11:55;;;;;;;4.97;3.95;;;10.70;99.90;;;;;;5047553;28;20056;-70
2022/04/23 00:14:21;;;;;;;5.72;3.42;;;10.60;99.90;;;;;;5041511;28;20075;-70
2022/04/23 00:16:50;;;;;;;2.83;2.45;;;10.60;99.90;;;;;;5058752;28;20502;-70
2022/04/23 00:19:16;;;;;;;3.25;2.38;;;10.50;99.90;;;;;;5047734;28;20050;-69
2022/04/23 00:21:42;;;;;;;3.75;2.95;;;10.50;99.90;;;;;;5039232;28;20044;-70
2022/04/23 00:24:08;;;;;;;3.63;2.90;;;10.40;99.90;;;;;;5051447;28;20043;-70
2022/04/23 00:26:33;;;;;;;4.72;2.42;;;10.40;99.90;;;;;;5040932;28;20164;-69
2022/04/23 00:28:59;;;;;;;3.38;2.72;;;10.40;99.90;;;;;;5039381;28;20044;-69
2022/04/23 00:31:26;;;;;;;6.72;4.05;;;10.30;99.90;;;;;;5028863;28;20414;-70
2022/04/23 00:33:52;;;;;;;3.40;1.80;;;10.30;99.90;;;;;;5032914;28;20049;-70
2022/04/23 00:36:18;;;;;;;2.72;2.35;;;10.30;99.90;;;;;;5056217;28;20036;-70
2022/04/23 00:38:49;;;;;;;6.70;3.88;;;10.30;99.90;;;;;;5030082;28;20040;-70
2022/04/23 00:44:00;;;;;;;4.15;2.28;;;10.20;99.90;;;;;;5070721;28;20049;-69
2022/04/23 00:46:26;;;;;;;7.07;4.05;;;10.30;99.90;;;;;;5047784;28;20584;-69
2022/04/23 00:48:52;;;;;;;5.65;3.15;;;10.30;99.90;;;;;;5055097;28;20422;-69
2022/04/23 00:51:18;;;;;;;5.15;2.95;;;10.30;99.90;;;;;;5035025;28;20143;-69
2022/04/23 00:53:46;;;;;;;1.45;1.38;;;10.20;99.90;;;;;;5051655;28;20139;-69
2022/04/23 00:56:13;;;;;;;13.18;3.78;;;10.20;99.90;;;;;;5049057;28;20040;-69
2022/04/23 00:58:39;;;;;;;4.53;2.88;;;10.20;99.90;;;;;;5054573;28;20036;-70
2022/04/23 01:01:04;;;;;;;6.68;3.58;;;10.20;99.90;;;;;;5055940;28;20051;-69
2022/04/23 01:03:30;;;;;;;10.90;4.85;;;10.20;99.90;;;;;;5052160;28;20070;-69
2022/04/23 01:05:57;;;;;;;5.43;3.13;;;10.20;99.90;;;;;;5043342;28;20044;-69
2022/04/23 01:08:25;;;;;;;5.70;4.53;;;10.20;99.90;;;;;;5049580;28;20040;-70
2022/04/23 01:10:52;;;;;;;5.90;3.30;;;10.10;99.90;;;;;;5059627;28;20048;-70
2022/04/23 01:13:18;;;;;;;1.58;1.48;;;10.10;99.90;;;;;;5046842;28;20042;-69
2022/04/23 01:16:02;;;;;;;3.38;2.55;;;10.10;99.90;;;;;;5066278;28;20134;-70
2022/04/23 01:18:28;;;;;;;6.85;3.17;;;10.00;99.90;;;;;;5046526;28;20048;-70
2022/04/23 01:20:57;;;;;;;8.00;4.38;;;10.00;99.90;;;;;;5060724;28;20417;-70
2022/04/23 01:23:23;;;;;;;5.65;2.83;;;10.00;99.90;;;;;;5030820;28;20045;-69
2022/04/23 01:25:53;;;;;;;4.65;2.85;;;10.00;99.90;;;;;;5066646;28;20044;-69
2022/04/23 01:28:24;;;;;;;8.63;3.67;;;10.00;99.90;;;;;;5084027;28;20368;-69
2022/04/23 01:30:55;;;;;;;6.32;2.75;;;10.00;99.90;;;;;;5034561;28;20444;-70
2022/04/23 01:33:20;;;;;;;2.90;2.50;;;10.00;99.90;;;;;;5039567;28;20033;-69
2022/04/23 01:35:46;;;;;;;2.42;2.17;;;10.00;99.90;;;;;;5038715;28;20033;-69
2022/04/23 01:38:13;;;;;;;5.20;3.10;;;10.00;99.90;;;;;;5068614;28;20769;-69
2022/04/23 01:40:39;;;;;;;2.55;1.92;;;10.00;99.90;;;;;;5044114;28;20045;-70
2022/04/23 01:43:05;;;;;;;11.30;4.05;;;10.00;99.90;;;;;;5051593;28;20091;-70
2022/04/23 01:45:31;;;;;;;4.70;3.50;;;10.00;99.90;;;;;;5049797;28;20529;-70
2022/04/23 01:47:57;;;;;;;8.63;4.28;;;10.00;99.90;;;;;;5069518;28;20072;-69
2022/04/23 01:50:23;;;;;;;10.40;4.60;;;10.00;99.90;;;;;;5063421;28;20056;-69
2022/04/23 01:52:49;;;;;;;9.23;5.75;;;10.00;99.90;;;;;;5041390;28;20048;-70
2022/04/23 01:55:14;;;;;;;6.07;3.47;;;10.00;99.90;;;;;;5047608;28;20037;-70
2022/04/23 01:57:40;;;;;;;7.80;4.55;;;10.00;99.90;;;;;;5061268;28;20505;-70
2022/04/23 02:00:08;;;;;;;5.53;4.03;;;10.00;99.90;;;;;;5081147;28;20550;-70
2022/04/23 02:02:36;;;;;;;10.27;5.18;;;10.00;99.90;;;;;;5067215;28;20499;-70
2022/04/23 02:05:03;;;;;;;7.82;4.43;;;9.90;99.90;;;;;;5052827;28;20037;-70
2022/04/23 02:07:29;;;;;;;2.95;2.38;;;9.90;99.90;;;;;;5053622;28;20037;-70
2022/04/23 02:09:54;;;;;;;11.95;4.90;;;9.90;99.90;;;;;;5036769;28;20037;-70
2022/04/23 02:12:20;;;;;;;6.97;4.13;;;9.90;99.90;;;;;;5032812;28;20523;-70
2022/04/23 02:14:48;;;;;;;9.75;4.10;;;9.90;99.90;;;;;;5049853;28;20032;-70
2022/04/23 02:17:14;;;;;;;9.35;4.57;;;9.90;99.90;;;;;;5057716;28;20138;-70
2022/04/23 02:19:40;;;;;;;7.97;4.90;;;9.90;99.90;;;;;;5058143;28;20110;-70
2022/04/23 02:22:05;;;;;;;7.10;5.07;;;9.90;99.90;;;;;;5056357;28;20127;-70
2022/04/23 02:24:31;;;;;;;10.63;6.35;;;9.90;99.90;;;;;;5036414;28;20032;-70
2022/04/23 02:26:57;;;;;;;7.95;4.95;;;9.90;99.90;;;;;;5069123;28;20241;-70
2022/04/23 02:29:22;;;;;;;7.22;3.33;;;9.80;99.90;;;;;;5052766;28;20075;-70
2022/04/23 02:31:48;;;;;;;11.15;6.03;;;9.80;99.90;;;;;;5058083;28;20063;-70
2022/04/23 02:34:14;;;;;;;1.98;1.70;;;9.80;99.90;;;;;;5062670;28;20043;-70
2022/04/23 02:36:39;;;;;;;8.82;5.43;;;9.80;99.90;;;;;;5053169;28;20151;-70
2022/04/23 02:39:05;;;;;;;5.05;3.33;;;9.80;99.90;;;;;;5036859;28;20555;-70
2022/04/23 02:41:31;;;;;;;11.25;4.65;;;9.70;99.90;;;;;;5054116;28;20068;-70
2022/04/23 02:43:57;;;;;;;8.18;4.18;;;9.70;99.90;;;;;;5067795;28;20046;-70
2022/04/23 02:46:24;;;;;;;8.27;4.32;;;9.60;99.90;;;;;;5066873;28;20589;-70
2022/04/23 02:48:49;;;;;;;6.70;4.22;;;9.60;99.90;;;;;;5060252;28;20458;-70
2022/04/23 02:51:16;;;;;;;8.45;4.97;;;9.60;99.90;;;;;;5044796;28;20123;-70
2022/04/23 02:53:45;;;;;;;9.02;5.18;;;9.60;99.90;;;;;;5062819;28;20032;-70
2022/04/23 02:56:16;;;;;;;14.38;5.63;;;9.60;99.90;;;;;;5043243;28;20126;-70
2022/04/23 02:58:45;;;;;;;10.52;4.57;;;9.70;99.90;;;;;;5038193;28;20044;-70
2022/04/23 03:01:11;;;;;;;5.85;4.10;;;9.60;99.90;;;;;;5053093;28;20070;-70
2022/04/23 03:03:39;;;;;;;7.53;4.28;;;9.70;99.90;;;;;;5042550;28;20389;-70
2022/04/23 03:06:07;;;;;;;9.88;4.43;;;9.60;99.90;;;;;;5062873;28;20093;-70
2022/04/23 03:08:35;;;;;;;11.80;5.25;;;9.60;99.90;;;;;;5052385;28;20068;-70
2022/04/23 03:11:00;;;;;;;6.15;3.40;;;9.60;99.90;;;;;;5041839;28;20040;-70
2022/04/23 03:13:26;;;;;;;12.43;4.72;;;9.60;99.90;;;;;;5052225;28;20499;-70
2022/04/23 03:15:52;;;;;;;9.65;4.70;;;9.60;99.90;;;;;;5039346;28;20044;-70
2022/04/23 03:18:18;;;;;;;8.75;5.32;;;9.60;99.90;;;;;;5059785;28;20395;-70
2022/04/23 03:20:44;;;;;;;9.07;5.30;;;9.60;99.90;;;;;;5051864;28;20394;-70
2022/04/23 03:23:13;;;;;;;8.88;5.25;;;9.60;99.90;;;;;;5064471;28;20097;-70
2022/04/23 03:25:41;;;;;;;10.85;5.53;;;9.60;99.90;;;;;;5064788;28;20075;-70
2022/04/23 03:28:07;;;;;;;10.57;5.35;;;9.60;99.90;;;;;;5049416;28;20138;-70
2022/04/23 03:30:33;;;;;;;6.03;3.15;;;9.60;99.90;;;;;;5047015;28;20071;-70
2022/04/23 03:32:59;;;;;;;4.93;2.00;;;9.60;99.90;;;;;;5050406;28;20064;-70
2022/04/23 03:35:26;;;;;;;3.47;3.15;;;9.50;99.90;;;;;;5047211;28;20036;-70
2022/04/23 03:37:52;;;;;;;7.32;5.00;;;9.50;99.90;;;;;;5041221;28;20043;-70
2022/04/23 03:40:17;;;;;;;6.82;3.88;;;9.50;99.90;;;;;;5063909;28;20471;-70
2022/04/23 03:42:48;;;;;;;5.45;4.13;;;9.40;99.90;;;;;;5046234;28;20044;-70
2022/04/23 03:45:16;;;;;;;3.58;3.13;;;9.40;99.90;;;;;;5064608;28;20449;-70
2022/04/23 03:47:48;;;;;;;6.68;5.10;;;9.40;99.90;;;;;;5036179;28;20036;-70
2022/04/23 03:50:15;;;;;;;10.40;4.93;;;9.30;99.90;;;;;;5044297;28;20060;-70
2022/04/23 03:52:41;;;;;;;9.48;4.40;;;9.40;99.90;;;;;;5057746;28;20047;-70
2022/04/23 03:55:07;;;;;;;5.85;3.95;;;9.30;99.90;;;;;;5050584;28;20044;-70
2022/04/23 03:57:52;;;;;;;8.25;4.43;;;9.40;99.90;;;;;;5043562;28;20045;-70
2022/04/23 04:00:20;;;;;;;8.00;3.53;;;9.40;99.90;;;;;;5048352;28;20146;-70
2022/04/23 04:02:46;;;;;;;9.57;5.38;;;9.40;99.90;;;;;;5055456;28;20488;-70
2022/04/23 04:05:12;;;;;;;10.15;3.83;;;9.40;99.90;;;;;;5042984;28;20051;-70
2022/04/23 04:07:45;;;;;;;7.72;4.30;;;9.30;99.90;;;;;;5058152;28;20040;-70
2022/04/23 04:10:12;;;;;;;5.32;3.67;;;9.30;99.90;;;;;;5055236;28;20036;-70
2022/04/23 04:12:38;;;;;;;4.60;3.53;;;9.20;99.90;;;;;;5044413;28;20051;-70
2022/04/23 04:15:09;;;;;;;6.50;4.20;;;9.20;99.90;;;;;;5046552;28;20044;-70
2022/04/23 04:17:36;;;;;;;5.63;3.42;;;9.20;99.90;;;;;;5065018;28;20130;-70
2022/04/23 04:20:06;;;;;;;2.53;2.00;;;9.20;99.90;;;;;;5048851;28;20126;-70
2022/04/23 04:22:32;;;;;;;7.38;4.55;;;9.20;99.90;;;;;;5041067;28;20040;-70
2022/04/23 04:24:57;;;;;;;4.57;3.75;;;9.20;99.90;;;;;;5050614;28;20049;-70
2022/04/23 04:27:24;;;;;;;11.25;6.25;;;9.20;99.90;;;;;;5037118;28;20040;-70
2022/04/23 04:29:49;;;;;;;4.70;3.92;;;9.20;99.90;;;;;;5036507;28;20037;-70
2022/04/23 04:32:15;;;;;;;6.97;4.38;;;9.30;99.90;;;;;;5046691;28;20044;-69
2022/04/23 04:34:41;;;;;;;7.00;5.28;;;9.30;99.90;;;;;;5047946;28;20153;-69
2022/04/23 04:37:09;;;;;;;7.88;5.50;;;9.20;99.90;;;;;;5019818;28;20680;-70
2022/04/23 04:39:39;;;;;;;10.85;5.03;;;9.20;99.90;;;;;;5022854;28;20571;-69
2022/04/23 04:42:05;;;;;;;7.50;4.47;;;9.30;99.90;;;;;;5039375;28;20044;-70
2022/04/23 04:44:31;;;;;;;9.93;5.20;;;9.20;99.90;;;;;;5050828;28;20127;-70
2022/04/23 04:46:57;;;;;;;4.43;2.60;;;9.20;99.90;;;;;;5050741;28;20542;-70
2022/04/23 04:49:22;;;;;;;11.05;4.28;;;9.20;99.90;;;;;;5028261;28;20040;-70
2022/04/23 04:51:49;;;;;;;7.90;4.47;;;9.20;99.90;;;;;;5033774;28;20044;-70
2022/04/23 04:54:17;;;;;;;7.22;4.65;;;9.20;99.90;;;;;;5034426;28;20121;-69
2022/04/23 04:56:44;;;;;;;8.63;5.35;;;9.20;99.90;;;;;;5026494;28;20127;-70
2022/04/23 04:59:10;;;;;;;7.95;5.65;;;9.20;99.90;;;;;;5044877;28;20052;-70
2022/04/23 05:01:36;;;;;;;5.78;2.90;;;9.20;99.90;;;;;;5030804;28;20048;-70
2022/04/23 05:04:02;;;;;;;3.78;2.88;;;9.20;99.90;;;;;;5018837;28;20040;-70
2022/04/23 05:06:28;;;;;;;4.97;3.42;;;9.20;99.90;;;;;;5020278;28;20072;-70
2022/04/23 05:08:53;;;;;;;10.25;6.55;;;9.20;99.90;;;;;;5033689;28;20484;-70
2022/04/23 05:11:19;;;;;;;7.18;4.25;;;9.30;99.90;;;;;;5059831;28;20068;-70
2022/04/23 05:13:45;;;;;;;3.38;2.95;;;9.30;99.90;;;;;;5033272;28;20134;-70
2022/04/23 05:16:10;;;;;;;5.90;4.07;;;9.30;99.90;;;;;;5068841;28;20048;-70
2022/04/23 05:18:36;;;;;;;7.97;4.95;;;9.30;99.90;;;;;;5053778;28;20546;-70
2022/04/23 05:21:03;;;;;;;12.27;6.45;;;9.40;99.90;;;;;;5049953;28;20513;-70
2022/04/23 05:23:28;;;;;;;2.95;2.30;;;9.50;99.90;;;;;;5039428;28;20071;-70
2022/04/23 05:25:55;;;;;;;6.30;3.17;;;9.70;99.90;;;;;;5047286;28;20076;-70
2022/04/23 05:28:21;;;;;;;5.38;4.15;;;9.70;99.90;;;;;;5083139;28;20047;-70
2022/04/23 05:30:46;;;;;;;7.47;4.85;;;9.90;99.90;;;;;;5068732;28;20399;-70
2022/04/23 05:33:12;;;;;;;17.40;3.42;;;10.10;99.90;;;;;;5049766;28;20044;-70
2022/04/23 05:35:38;;;;;;;12.02;4.53;;;10.60;99.90;;;;;;5036403;28;20677;-70
2022/04/23 05:38:04;;;;;;;7.50;5.50;;;11.00;99.90;;;;;;5053612;28;20059;-70
2022/04/23 05:40:30;;;;;;;6.95;4.00;;;11.20;99.90;;;;;;5051916;28;20051;-70
2022/04/23 05:42:58;;;;;;;8.10;5.32;;;11.10;99.90;;;;;;5051296;28;20514;-70
2022/04/23 05:45:25;;;;;;;7.25;4.18;;;10.90;99.90;;;;;;5040060;28;20051;-70
2022/04/23 05:47:50;;;;;;;7.20;4.80;;;10.60;99.90;;;;;;5030352;28;20049;-70
2022/04/23 05:50:16;;;;;;;6.85;4.43;;;10.40;99.90;;;;;;5030549;28;20060;-70
2022/04/23 05:52:42;;;;;;;6.68;3.65;;;10.30;99.90;;;;;;5053164;28;20123;-70
2022/04/23 05:55:08;;;;;;;6.05;4.50;;;10.20;99.90;;;;;;5048407;28;20064;-70
2022/04/23 05:57:34;;;;;;;7.68;4.40;;;10.20;99.90;;;;;;5042007;28;20092;-70
2022/04/23 06:00:00;;;;;;;7.97;5.43;;;10.10;99.90;;;;;;5067204;28;20499;-70
2022/04/23 06:02:26;;;;;;;12.32;4.18;;;10.20;99.90;;;;;;5048999;28;20137;-70
2022/04/23 06:04:52;;;;;;;8.88;6.00;;;10.10;99.90;;;;;;5050076;28;20128;-70
2022/04/23 06:07:18;;;;;;;8.30;4.28;;;10.20;99.90;;;;;;5049912;28;20055;-70
2022/04/23 06:09:44;;;;;;;8.80;5.20;;;10.30;99.90;;;;;;5030438;28;20044;-70
2022/04/23 06:12:10;;;;;;;2.97;2.33;;;10.40;99.90;;;;;;5056134;28;20143;-70
2022/04/23 06:14:35;;;;;;;11.05;5.43;;;10.50;99.90;;;;;;5053563;28;20047;-70
2022/04/23 06:17:01;;;;;;;10.82;6.60;;;10.80;99.90;;;;;;5041486;28;20629;-70
2022/04/23 06:19:30;;;;;;;9.20;7.43;;;11.30;99.90;;;;;;5066052;28;20051;-70
2022/04/23 06:21:57;;;;;;;5.18;3.67;;;11.60;99.90;;;;;;5034945;28;20036;-70
2022/04/23 06:24:23;;;;;;;6.25;4.25;;;11.60;99.90;;;;;;5037595;28;20040;-70
2022/04/23 06:26:48;;;;;;;9.93;5.13;;;11.60;99.90;;;;;;5057672;28;20432;-70
2022/04/23 06:29:14;;;;;;;8.60;5.30;;;11.60;99.90;;;;;;5031621;28;20033;-70
2022/04/23 06:31:39;;;;;;;4.88;3.47;;;11.60;99.90;;;;;;5051759;28;20040;-70
2022/04/23 06:34:05;;;;;;;5.53;4.53;;;11.70;99.90;;;;;;5058291;28;20048;-70
2022/04/23 06:36:30;;;;;;;4.78;3.47;;;11.70;99.90;;;;;;5034981;28;20052;-70
2022/04/23 06:38:56;;;;;;;8.05;5.22;;;11.70;99.90;;;;;;5024149;28;20051;-70
2022/04/23 06:41:22;;;;;;;5.43;3.65;;;11.80;99.90;;;;;;5016701;28;20450;-70
2022/04/23 06:43:47;;;;;;;6.15;4.93;;;11.90;99.90;;;;;;5050244;28;20051;-70
2022/04/23 06:46:13;;;;;;;7.95;3.65;;;12.00;99.90;;;;;;5052676;28;20044;-70
2022/04/23 06:48:38;;;;;;;5.13;4.28;;;12.30;99.90;;;;;;5035848;28;20039;-70
2022/04/23 06:51:04;;;;;;;1.92;1.75;;;12.70;99.90;;;;;;5020313;28;20084;-70
2022/04/23 06:53:30;;;;;;;9.20;4.95;;;13.00;99.90;;;;;;5013200;28;20037;-70
2022/04/23 06:55:55;;;;;;;5.43;3.50;;;13.20;99.90;;;;;;5013154;28;20620;-70
2022/04/23 06:58:22;;;;;;;9.18;5.28;;;12.90;99.90;;;;;;5020764;28;20079;-70
2022/04/23 07:00:48;;;;;;;8.02;6.75;;;12.90;99.90;;;;;;5032532;28;20535;-70
2022/04/23 07:03:13;;;;;;;7.70;5.78;;;13.00;99.90;;;;;;5032576;28;20075;-70
2022/04/23 07:05:39;;;;;;;5.10;3.00;;;12.80;99.90;;;;;;5011816;28;20064;-70
2022/04/23 07:08:05;;;;;;;7.15;4.25;;;12.50;99.90;;;;;;4999248;28;20176;-71
2022/04/23 07:10:31;;;;;;;8.65;5.53;;;12.30;99.90;;;;;;5035522;28;20102;-70
2022/04/23 07:12:58;;;;;;;6.50;5.00;;;12.20;99.90;;;;;;5086087;28;20372;-70
2022/04/23 07:15:25;;;;;;;6.90;4.18;;;12.30;99.90;;;;;;5051992;28;20185;-70
2022/04/23 07:17:51;;;;;;;8.00;5.53;;;12.40;99.90;;;;;;5052383;28;20051;-70
2022/04/23 07:20:18;;;;;;;8.93;4.22;;;12.40;99.90;;;;;;5052264;28;20066;-70
2022/04/23 07:25:29;;;;;;;6.75;4.55;;;12.30;99.90;;;;;;5048988;28;20412;-70
2022/04/23 07:27:55;;;;;;;4.53;3.17;;;12.50;99.90;;;;;;5032369;28;20037;-70
2022/04/23 07:30:21;;;;;;;10.88;5.80;;;12.50;99.90;;;;;;5034457;28;20166;-70
2022/04/23 07:32:47;;;;;;;5.50;4.40;;;12.50;99.90;;;;;;5036048;28;20086;-70
2022/04/23 07:37:56;;;;;;;4.78;3.92;;;12.50;99.50;;;;;;5052260;28;20484;-70
2022/04/23 07:40:23;;;;;;;4.10;2.65;;;12.50;99.70;;;;;;5034981;28;20119;-70
2022/04/23 07:42:48;;;;;;;6.72;4.68;;;12.60;99.50;;;;;;5035700;28;20048;-70
2022/04/23 07:45:14;;;;;;;4.28;3.35;;;12.70;99.80;;;;;;5031220;28;20052;-70
2022/04/23 07:47:40;;;;;;;6.97;4.65;;;12.70;99.20;;;;;;5032358;28;20052;-70
2022/04/23 07:50:06;;;;;;;7.93;5.60;;;12.70;99.00;;;;;;5034396;28;20060;-70
2022/04/23 07:52:34;;;;;;;5.25;3.67;;;12.70;97.70;;;;;;5051737;28;20504;-70
2022/04/23 07:55:00;;;;;;;7.72;3.35;;;12.70;98.50;;;;;;5031097;28;20049;-70
2022/04/23 07:57:26;;;;;;;8.50;5.70;;;12.70;98.40;;;;;;5031630;28;20087;-70
2022/04/23 07:59:52;;;;;;;9.73;4.75;;;12.80;98.30;;;;;;5042725;28;20502;-70
2022/04/23 08:02:18;;;;;;;8.20;6.30;;;12.80;97.40;;;;;;5051011;28;20044;-70
2022/04/23 08:04:45;;;;;;;7.25;4.35;;;12.80;96.60;;;;;;5029092;28;20045;-70
2022/04/23 08:07:11;;;;;;;6.25;4.47;;;12.80;97.20;;;;;;5047761;28;20046;-71
2022/04/23 08:09:39;;;;;;;10.15;5.25;;;12.80;97.50;;;;;;5063331;28;20041;-70
2022/04/23 08:12:08;;;;;;;27.17;3.70;;;12.90;97.50;;;;;;5055454;28;20048;-70
2022/04/23 08:14:34;;;;;;;3.20;1.83;;;12.90;96.80;;;;;;5051436;28;20615;-70
2022/04/23 08:17:00;;;;;;;10.77;5.75;;;12.90;96.60;;;;;;5030891;28;20136;-70
2022/04/23 08:19:26;;;;;;;9.25;5.28;;;13.00;97.10;;;;;;5047369;28;20041;-70
2022/04/23 08:21:51;;;;;;;5.60;4.05;;;13.10;95.60;;;;;;5059879;28;20070;-70
2022/04/23 08:24:19;;;;;;;11.38;4.93;;;13.10;96.60;;;;;;5030625;28;20073;-70
2022/04/23 08:26:44;;;;;;;8.85;5.57;;;13.10;96.70;;;;;;5050359;28;20048;-71
2022/04/23 08:31:54;;;;;;;5.18;4.22;;;13.30;97.10;;;;;;5045063;28;20559;-70
2022/04/23 08:34:20;;;;;;;6.18;5.15;;;13.40;96.60;;;;;;5050607;28;20083;-70
2022/04/23 08:36:49;;;;;;;7.35;6.05;;;13.50;95.60;;;;;;5037312;28;20465;-70
2022/04/23 08:39:16;;;;;;;7.78;5.53;;;13.60;94.90;;;;;;5058229;28;20048;-70
2022/04/23 08:41:45;;;;;;;5.30;4.10;;;13.60;95.40;;;;;;5049785;28;20040;-70
2022/04/23 08:44:11;;;;;;;5.88;4.13;;;13.90;95.90;;;;;;5050705;28;20065;-71
2022/04/23 08:46:39;;;;;;;4.88;4.15;;;14.40;93.70;;;;;;5054123;28;20048;-70
2022/04/23 08:49:11;;;;;;;5.50;4.18;;;15.10;93.10;;;;;;5065651;28;20040;-71
2022/04/23 08:51:38;;;;;;;9.35;4.93;;;15.70;91.30;;;;;;5049025;28;20429;-71
2022/04/23 08:54:10;;;;;;;6.38;4.88;;;16.00;86.60;;;;;;5031079;28;20048;-71
2022/04/23 08:56:37;;;;;;;8.88;4.45;;;16.10;83.40;;;;;;5045283;28;20041;-71
2022/04/23 08:59:04;;;;;;;4.47;3.22;;;16.30;82.80;;;;;;5014238;28;20049;-71
2022/04/23 09:01:33;;;;;;;5.80;4.50;;;16.50;80.70;;;;;;5036158;28;20040;-71
2022/04/23 09:03:59;;;;;;;4.53;3.90;;;16.50;78.30;;;;;;5051997;28;20044;-70
2022/04/23 09:06:39;;;;;;;8.00;5.30;;;16.80;79.00;;;;;;5026561;28;20041;-71
2022/04/23 09:09:06;;;;;;;6.25;2.97;;;17.10;74.20;;;;;;5039485;28;20041;-71
2022/04/23 09:11:36;;;;;;;6.85;5.00;;;17.00;71.90;;;;;;5017203;28;20126;-71
2022/04/23 09:14:06;;;;;;;6.72;4.07;;;17.00;73.10;;;;;;5043413;28;20389;-70
2022/04/23 09:25:10;;;;;;;10.27;5.05;;;17.40;70.10;;;;;;5052494;28;20055;-70
2022/04/23 09:27:41;;;;;;;5.47;3.25;;;17.40;68.20;;;;;;5034208;28;20509;-71
2022/04/23 09:30:07;;;;;;;8.48;3.88;;;17.30;69.30;;;;;;5049080;28;20118;-71
2022/04/23 09:32:34;;;;;;;5.65;3.45;;;17.40;68.10;;;;;;5050347;28;20088;-70
2022/04/23 09:35:07;;;;;;;6.90;5.25;;;17.50;67.80;;;;;;5050116;28;20044;-71
2022/04/23 09:40:27;;;;;;;12.65;6.63;;;17.30;66.80;;;;;;5033596;28;20139;-71
2022/04/23 09:43:03;;;;;;;4.88;3.40;;;17.30;65.70;;;;;;5050281;28;20048;-71
2022/04/23 09:45:30;;;;;;;7.75;6.40;;;17.20;67.90;;;;;;5051732;28;20080;-71
2022/04/23 09:48:17;;;;;;;2.35;2.15;;;17.30;65.50;;;;;;5053310;28;20098;-71
2022/04/23 09:50:45;;;;;;;3.55;3.25;;;17.30;69.40;;;;;;5051838;28;20048;-71
2022/04/23 09:53:13;;;;;;;5.68;3.97;;;17.60;68.00;;;;;;5066475;28;20048;-71
2022/04/23 09:55:38;;;;;;;6.88;4.22;;;17.80;68.30;;;;;;5049445;28;20182;-71
2022/04/23 09:58:07;;;;;;;4.30;3.28;;;17.90;63.70;;;;;;5034916;28;20056;-71
2022/04/23 10:00:36;;;;;;;5.57;3.72;;;17.90;64.40;;;;;;5051087;28;20442;-71
2022/04/23 10:03:06;;;;;;;16.92;4.72;;;17.80;61.70;;;;;;5055385;28;20545;-71
2022/04/23 10:05:41;;;;;;;2.95;2.58;;;17.80;63.10;;;;;;5052692;28;20119;-71
2022/04/23 10:08:18;;;;;;;6.90;4.80;;;17.80;63.10;;;;;;5073659;28;20047;-71
2022/04/23 10:11:11;;;;;;;3.50;2.80;;;17.80;61.20;;;;;;5073412;28;20605;-71
2022/04/23 10:13:43;;;;;;;4.72;3.60;;;17.60;61.00;;;;;;5040802;28;20127;-71
2022/04/23 10:16:10;;;;;;;5.90;3.50;;;17.60;62.00;;;;;;5052730;28;20859;-71
2022/04/23 10:18:40;;;;;;;3.85;3.22;;;17.60;61.10;;;;;;5055052;28;20278;-71
2022/04/23 10:21:08;;;;;;;2.53;2.05;;;17.60;63.10;;;;;;5017043;28;20415;-71
2022/04/23 10:23:55;;;;;;;1.80;1.55;;;17.60;61.70;;;;;;5047731;28;20511;-71
2022/04/23 10:26:32;;;;;;;6.63;4.43;;;17.70;63.90;;;;;;5053643;28;20396;-71
2022/04/23 10:28:58;;;;;;;6.68;4.78;;;17.70;60.60;;;;;;5049990;28;20041;-71
2022/04/23 10:31:24;;;;;;;2.05;1.77;;;17.70;61.50;;;;;;5052631;28;20119;-71
2022/04/23 10:33:51;;;;;;;5.93;3.75;;;17.60;61.00;;;;;;5053129;28;20839;-71
2022/04/23 10:36:21;;;;;;;3.33;2.83;;;17.60;60.60;;;;;;5053011;28;20056;-71
2022/04/23 10:38:51;;;;;;;6.45;3.58;;;17.50;59.60;;;;;;5035760;28;20052;-71
2022/04/23 10:41:19;;;;;;;6.70;3.97;;;17.50;60.80;;;;;;5019389;28;20620;-71
2022/04/23 10:43:47;;;;;;;5.80;4.10;;;17.50;60.80;;;;;;5047114;28;20574;-71
2022/04/23 10:46:37;;;;;;;5.15;3.40;;;17.50;59.60;;;;;;5055023;28;20048;-71
2022/04/23 10:49:29;;;;;;;7.60;3.88;;;17.50;61.20;;;;;;5070127;28;20126;-71
2022/04/23 10:51:57;;;;;;;5.20;3.88;;;17.60;61.40;;;;;;5049363;28;20152;-71
2022/04/23 10:54:41;;;;;;;5.40;3.85;;;17.60;59.80;;;;;;5036088;28;20049;-71
2022/04/23 10:57:11;;;;;;;5.43;4.30;;;17.60;59.30;;;;;;5036059;28;20621;-71
2022/04/23 10:59:44;;;;;;;4.05;2.20;;;17.50;59.10;;;;;;5051849;28;20056;-71
2022/04/23 11:02:22;;;;;;;4.10;3.17;;;17.40;60.70;;;;;;5049322;28;20516;-71
2022/04/23 11:13:29;;;;;;;8.73;4.53;;;17.60;59.60;;;;;;5070646;28;20123;-71
2022/04/23 11:16:13;;;;;;;6.35;4.00;;;17.70;59.50;;;;;;5039616;28;20060;-71
2022/04/23 11:18:41;;;;;;;7.32;4.55;;;17.80;60.00;;;;;;5032669;28;20407;-70
2022/04/23 11:21:21;;;;;;;6.13;4.65;;;17.90;58.80;;;;;;5042935;28;20122;-71
2022/04/23 11:23:47;;;;;;;6.05;4.35;;;17.90;57.70;;;;;;5043553;28;20068;-71
2022/04/23 11:26:18;;;;;;;4.60;3.97;;;17.80;58.70;;;;;;5047265;28;20564;-71
2022/04/23 11:28:44;;;;;;;7.32;5.25;;;17.70;56.70;;;;;;5036496;28;20438;-71
2022/04/23 11:31:15;;;;;;;6.13;4.40;;;17.70;57.50;;;;;;5030613;28;20040;-71
2022/04/23 11:34:01;;;;;;;4.50;2.78;;;17.70;56.70;;;;;;5054303;28;20043;-71
2022/04/23 11:36:29;;;;;;;7.32;4.65;;;17.80;57.60;;;;;;5051994;28;20051;-71
2022/04/23 11:38:59;;;;;;;6.45;3.83;;;17.80;57.40;;;;;;5043695;28;20039;-71
2022/04/23 11:41:38;;;;;;;2.10;1.90;;;17.80;58.30;;;;;;5051519;28;20123;-71
2022/04/23 11:44:12;;;;;;;5.45;4.43;;;18.00;58.20;;;;;;5052211;28;20086;-71
2022/04/23 11:46:45;;;;;;;9.55;4.97;;;18.20;57.00;;;;;;5051331;28;20373;-71
2022/04/23 11:49:29;;;;;;;4.63;2.92;;;18.30;54.60;;;;;;5030835;28;20064;-71
2022/04/23 11:52:14;;;;;;;9.20;4.80;;;18.20;55.60;;;;;;5015064;28;20437;-71
2022/04/23 11:54:41;;;;;;;3.20;2.33;;;18.20;56.00;;;;;;5029338;28;20080;-71
2022/04/23 11:57:12;;;;;;;3.88;2.72;;;18.30;56.80;;;;;;5015030;28;20385;-71
2022/04/23 11:59:40;;;;;;;4.57;3.85;;;18.40;56.90;;;;;;5030289;28;20096;-71
2022/04/23 12:02:15;;;;;;;4.35;3.80;;;18.60;55.90;;;;;;5031735;28;20045;-71
2022/04/23 12:04:42;;;;;;;5.18;4.57;;;18.60;53.70;;;;;;5009367;28;20051;-70
2022/04/23 12:07:10;;;;;;;5.68;3.55;;;18.60;54.50;;;;;;5036098;28;20047;-71
2022/04/23 12:09:50;;;;;;;3.17;2.72;;;18.50;55.20;;;;;;5026150;28;20048;-71
2022/04/23 12:12:21;;;;;;;4.40;2.92;;;18.50;54.80;;;;;;5024727;28;20032;-71
2022/04/23 12:14:51;;;;;;;8.10;3.50;;;18.40;54.90;;;;;;5030892;28;20133;-70
2022/04/23 12:17:21;;;;;;;2.67;2.42;;;18.50;55.90;;;;;;5030503;28;20045;-70
2022/04/23 12:19:50;;;;;;;13.18;5.65;;;18.50;56.70;;;;;;5014538;28;20079;-71
2022/04/23 12:22:31;;;;;;;6.43;3.25;;;18.70;54.50;;;;;;5029700;28;20041;-71
2022/04/23 12:25:09;;;;;;;7.75;3.60;;;18.60;53.60;;;;;;5014074;28;20046;-71
2022/04/23 12:27:54;;;;;;;5.15;3.88;;;18.50;55.10;;;;;;5027546;28;20504;-71
2022/04/23 12:42:05;;;;;;;3.50;2.38;;;18.60;54.00;;;;;;5030569;28;20052;-70
2022/04/23 12:44:37;;;;;;;9.60;3.03;;;18.60;55.40;;;;;;5011242;28;20049;-70
2022/04/23 12:47:26;;;;;;;7.40;4.68;;;18.80;53.00;;;;;;5030848;28;20485;-70
2022/04/23 12:49:55;;;;;;;4.22;2.65;;;18.80;52.60;;;;;;5030351;28;20064;-71
2022/04/23 12:52:31;;;;;;;5.80;3.65;;;18.70;53.10;;;;;;5033970;28;20447;-70
2022/04/23 12:55:18;;;;;;;7.40;4.28;;;18.70;52.40;;;;;;5025746;28;20040;-70
2022/04/23 12:57:52;;;;;;;2.95;2.17;;;18.60;50.50;;;;;;5031434;28;20496;-71
2022/04/23 13:00:19;;;;;;;4.75;2.92;;;18.70;53.60;;;;;;5043935;28;20055;-70
2022/04/23 13:02:53;;;;;;;4.10;3.42;;;18.80;53.60;;;;;;5048125;28;20392;-71
2022/04/23 13:05:19;;;;;;;13.35;3.15;;;18.90;53.10;;;;;;5048575;28;20622;-71
2022/04/23 13:10:29;;;;;;;3.33;2.50;;;19.00;50.90;;;;;;5048892;28;20079;-71
2022/04/23 13:12:55;;;;;;;4.40;2.70;;;19.00;51.60;;;;;;5032292;28;20075;-71
2022/04/23 13:15:21;;;;;;;4.63;3.60;;;19.10;51.80;;;;;;5049665;28;20042;-71
2022/04/23 13:17:47;;;;;;;10.00;3.35;;;19.10;51.00;;;;;;5042736;28;20045;-71
2022/04/23 13:20:14;;;;;;;4.38;3.30;;;19.10;49.50;;;;;;5050471;28;20051;-71
2022/04/23 13:22:43;;;;;;;4.95;2.97;;;19.00;49.10;;;;;;5022915;28;20044;-71
2022/04/23 13:25:10;;;;;;;4.78;2.17;;;18.90;50.30;;;;;;5053257;28;20128;-70
2022/04/23 13:27:36;;;;;;;5.15;3.25;;;18.90;53.10;;;;;;5038537;28;20055;-70
2022/04/23 13:30:03;;;;;;;4.90;3.13;;;19.20;51.40;;;;;;5037158;28;20078;-70
2022/04/23 13:32:28;;;;;;;3.38;2.90;;;19.20;50.20;;;;;;5031879;28;20069;-71
2022/04/23 13:34:54;;;;;;;7.47;2.33;;;19.20;49.80;;;;;;5034080;28;20420;-71
2022/04/23 13:37:20;;;;;;;4.20;2.60;;;19.10;50.80;;;;;;5024109;28;20042;-70
2022/04/23 13:39:46;;;;;;;2.78;2.45;;;19.20;49.10;;;;;;5061909;28;20048;-70